Hauptseite
METAR-TAF:

METAR-TAF

Flughäfen :

Flughafen Salzburg

Salzburg, Österreich

Breite: 47-48N, Länge: 013-00E, Höhe: 430 m

Beobachtung

Neuester Wetterbericht von vor 27 Minuten, um 02:50 UTC
Wind 10 kt aus Süd/Südost
Temperatur 12°C
Luftfeuchtigkeit 62%
Luftdruck 1017 hPa
Sichtweite 10 km oder mehr

METAR: LOWS 160250Z AUTO 15010KT 9999 NSC 12/05 Q1017

Zeit: 05:17 (03:17 UTC)

Prognose

Neuester Wetterbericht von vor 4 Stunden und 2 Minuten, um 23:15 UTC
Gültige Prognose vom 16 um 00 UTC bis 16 um 24 UTC
Wind 7 kt aus Süd/Südost
Sichtweite 10 km oder mehr
keine Wolken unter 1500 m und keine Kumulonimbus oder Gewitterwolken
Übergehend zu
vom 16 um 08 UTC bis 16 um 10 UTC
Wind 5 kt aus Nord
Übergehend zu
vom 16 um 16 UTC bis 16 um 18 UTC
Wind 7 kt aus Süd/Südost

TAF: LOWS 152315Z 1600/1624 15007KT CAVOK TX22/1613Z TN10/1605Z BECMG 1608/1610 01005KT BECMG 1616/1618 15007KT

Wetterbeobachtungen und Prognosen von mehr als 4000 Flughäfen (METAR und TAF Bericht).

Die verfügbaren Stationen werden durch gelbe und rote Markierungen auf der Karte dargestellt.

Führen Sie die Maus auf sie, um den Namen der Station zu sehen.

Darauf klicken, um die Beobachtung von Wetterbeobachtungen und Prognosen zu sehen.

Um die Karte zu ändern : klicken Sie auf den grünen Tasten mit einem schwarzen Kreuz Zum Vergrößern, auf den grünen Button mit einem Gedankenstrich zu verkleinern, oder auf die grünen Pfeile für benachbarte Karten.


METAR-TAF: